sensor_id;sensor_type;location;lat;lon;timestamp;pressure;altitude;pressure_sealevel;temperature;humidity
62703;BME280;66022;50.448;18.122;2023-10-31T00:00:48;97644.14;;;15.54;100.00
62703;BME280;66022;50.448;18.122;2023-10-31T00:04:59;97635.10;;;15.58;100.00
62703;BME280;66022;50.448;18.122;2023-10-31T00:09:09;97626.57;;;15.61;100.00
62703;BME280;66022;50.448;18.122;2023-10-31T00:13:18;97616.66;;;15.64;99.95
62703;BME280;66022;50.448;18.122;2023-10-31T00:17:28;97606.98;;;15.67;99.66
62703;BME280;66022;50.448;18.122;2023-10-31T00:21:39;97596.89;;;15.67;99.72
62703;BME280;66022;50.448;18.122;2023-10-31T00:25:49;97590.01;;;15.70;99.36
62703;BME280;66022;50.448;18.122;2023-10-31T00:29:59;97581.05;;;15.70;100.00
62703;BME280;66022;50.448;18.122;2023-10-31T00:34:09;97572.60;;;15.72;98.86
62703;BME280;66022;50.448;18.122;2023-10-31T00:38:19;97564.29;;;15.73;98.64
62703;BME280;66022;50.448;18.122;2023-10-31T00:42:29;97555.24;;;15.74;98.42
62703;BME280;66022;50.448;18.122;2023-10-31T00:46:39;97548.46;;;15.77;98.12
62703;BME280;66022;50.448;18.122;2023-10-31T00:50:49;97538.95;;;15.78;98.07
62703;BME280;66022;50.448;18.122;2023-10-31T00:54:59;97530.32;;;15.81;97.66
62703;BME280;66022;50.448;18.122;2023-10-31T00:59:09;97524.24;;;15.83;97.73
62703;BME280;66022;50.448;18.122;2023-10-31T01:03:19;97518.61;;;15.85;97.61
62703;BME280;66022;50.448;18.122;2023-10-31T01:07:29;97512.37;;;15.87;97.50
62703;BME280;66022;50.448;18.122;2023-10-31T01:11:39;97501.36;;;15.86;97.47
62703;BME280;66022;50.448;18.122;2023-10-31T01:15:49;97491.64;;;15.87;97.15
62703;BME280;66022;50.448;18.122;2023-10-31T01:19:59;97485.38;;;15.84;97.92
62703;BME280;66022;50.448;18.122;2023-10-31T01:24:11;97480.21;;;15.84;97.13
62703;BME280;66022;50.448;18.122;2023-10-31T01:28:18;97472.82;;;15.83;97.21
62703;BME280;66022;50.448;18.122;2023-10-31T01:32:29;97463.89;;;15.80;97.04
62703;BME280;66022;50.448;18.122;2023-10-31T01:36:39;97453.69;;;15.79;96.34
62703;BME280;66022;50.448;18.122;2023-10-31T01:40:49;97444.71;;;15.76;96.44
62703;BME280;66022;50.448;18.122;2023-10-31T01:44:59;97436.61;;;15.75;95.75
62703;BME280;66022;50.448;18.122;2023-10-31T01:49:08;97428.54;;;15.74;96.24
62703;BME280;66022;50.448;18.122;2023-10-31T01:53:18;97418.91;;;15.72;95.96
62703;BME280;66022;50.448;18.122;2023-10-31T01:57:28;97410.14;;;15.71;95.87
62703;BME280;66022;50.448;18.122;2023-10-31T02:01:38;97402.56;;;15.68;96.30
62703;BME280;66022;50.448;18.122;2023-10-31T02:05:50;97397.25;;;15.69;95.93
62703;BME280;66022;50.448;18.122;2023-10-31T02:09:58;97393.52;;;15.67;97.00
62703;BME280;66022;50.448;18.122;2023-10-31T02:14:09;97387.73;;;15.69;95.94
62703;BME280;66022;50.448;18.122;2023-10-31T02:18:18;97382.31;;;15.70;95.82
62703;BME280;66022;50.448;18.122;2023-10-31T02:22:28;97376.11;;;15.70;95.94
62703;BME280;66022;50.448;18.122;2023-10-31T02:26:38;97370.29;;;15.72;95.78
62703;BME280;66022;50.448;18.122;2023-10-31T02:30:48;97365.41;;;15.73;95.46
62703;BME280;66022;50.448;18.122;2023-10-31T02:34:59;97360.14;;;15.76;94.42
62703;BME280;66022;50.448;18.122;2023-10-31T02:39:08;97354.51;;;15.79;93.49
62703;BME280;66022;50.448;18.122;2023-10-31T02:43:19;97349.22;;;15.83;93.40
62703;BME280;66022;50.448;18.122;2023-10-31T02:47:29;97345.65;;;15.87;92.89
62703;BME280;66022;50.448;18.122;2023-10-31T02:51:39;97343.68;;;15.90;92.60
62703;BME280;66022;50.448;18.122;2023-10-31T02:55:49;97342.10;;;15.97;92.65
62703;BME280;66022;50.448;18.122;2023-10-31T02:59:59;97336.41;;;16.00;92.05
62703;BME280;66022;50.448;18.122;2023-10-31T03:04:09;97330.79;;;16.06;91.99
62703;BME280;66022;50.448;18.122;2023-10-31T03:08:19;97324.25;;;16.11;91.45
62703;BME280;66022;50.448;18.122;2023-10-31T03:12:29;97316.13;;;16.14;91.12
62703;BME280;66022;50.448;18.122;2023-10-31T03:16:39;97309.38;;;16.19;90.92
62703;BME280;66022;50.448;18.122;2023-10-31T03:20:49;97305.16;;;16.22;90.03
62703;BME280;66022;50.448;18.122;2023-10-31T03:24:59;97301.65;;;16.27;89.34
62703;BME280;66022;50.448;18.122;2023-10-31T03:29:09;97297.17;;;16.32;89.33
62703;BME280;66022;50.448;18.122;2023-10-31T03:33:19;97291.83;;;16.38;89.08
62703;BME280;66022;50.448;18.122;2023-10-31T03:37:29;97287.81;;;16.44;88.16
62703;BME280;66022;50.448;18.122;2023-10-31T03:41:39;97284.20;;;16.48;87.46
62703;BME280;66022;50.448;18.122;2023-10-31T03:45:49;97280.10;;;16.56;87.33
62703;BME280;66022;50.448;18.122;2023-10-31T03:49:59;97273.78;;;16.62;84.93
62703;BME280;66022;50.448;18.122;2023-10-31T03:54:09;97271.14;;;16.72;85.66
62703;BME280;66022;50.448;18.122;2023-10-31T03:58:19;97275.19;;;16.82;85.81
62703;BME280;66022;50.448;18.122;2023-10-31T04:02:29;97276.33;;;16.92;85.02
62703;BME280;66022;50.448;18.122;2023-10-31T04:06:39;97277.40;;;17.01;85.09
62703;BME280;66022;50.448;18.122;2023-10-31T04:10:49;97280.52;;;17.09;84.94
62703;BME280;66022;50.448;18.122;2023-10-31T04:14:59;97283.42;;;17.17;84.89
62703;BME280;66022;50.448;18.122;2023-10-31T04:19:09;97285.49;;;17.23;85.58
62703;BME280;66022;50.448;18.122;2023-10-31T04:23:19;97287.37;;;17.28;83.75
62703;BME280;66022;50.448;18.122;2023-10-31T04:31:39;97286.11;;;17.33;83.39
62703;BME280;66022;50.448;18.122;2023-10-31T04:39:59;97281.69;;;17.37;82.32
62703;BME280;66022;50.448;18.122;2023-10-31T04:44:09;97279.89;;;17.40;82.98
62703;BME280;66022;50.448;18.122;2023-10-31T04:48:19;97277.03;;;17.44;82.90
62703;BME280;66022;50.448;18.122;2023-10-31T04:52:29;97275.51;;;17.49;81.47
62703;BME280;66022;50.448;18.122;2023-10-31T04:56:39;97273.75;;;17.57;81.11
62703;BME280;66022;50.448;18.122;2023-10-31T05:00:49;97272.99;;;17.64;80.72
62703;BME280;66022;50.448;18.122;2023-10-31T05:04:59;97271.77;;;17.73;81.32
62703;BME280;66022;50.448;18.122;2023-10-31T05:09:09;97273.00;;;17.80;80.87
62703;BME280;66022;50.448;18.122;2023-10-31T05:13:19;97274.89;;;17.86;80.56
62703;BME280;66022;50.448;18.122;2023-10-31T05:17:29;97279.24;;;17.92;81.62
62703;BME280;66022;50.448;18.122;2023-10-31T05:21:39;97282.73;;;17.94;81.73
62703;BME280;66022;50.448;18.122;2023-10-31T05:25:49;97285.82;;;17.98;80.55
62703;BME280;66022;50.448;18.122;2023-10-31T05:29:59;97288.09;;;17.99;79.67
62703;BME280;66022;50.448;18.122;2023-10-31T05:34:09;97291.60;;;18.01;81.81
62703;BME280;66022;50.448;18.122;2023-10-31T05:38:19;97297.31;;;18.03;81.72
62703;BME280;66022;50.448;18.122;2023-10-31T05:42:29;97302.91;;;18.02;80.76
62703;BME280;66022;50.448;18.122;2023-10-31T05:46:39;97309.99;;;18.04;81.80
62703;BME280;66022;50.448;18.122;2023-10-31T05:50:49;97316.61;;;18.04;81.22
62703;BME280;66022;50.448;18.122;2023-10-31T05:54:59;97321.10;;;18.05;81.38
62703;BME280;66022;50.448;18.122;2023-10-31T05:59:09;97325.41;;;18.05;80.78
62703;BME280;66022;50.448;18.122;2023-10-31T06:03:19;97329.14;;;18.04;82.70
62703;BME280;66022;50.448;18.122;2023-10-31T06:07:29;97331.14;;;18.04;81.90
62703;BME280;66022;50.448;18.122;2023-10-31T06:11:42;97334.54;;;17.99;81.56
62703;BME280;66022;50.448;18.122;2023-10-31T06:15:49;97340.33;;;17.97;81.53
62703;BME280;66022;50.448;18.122;2023-10-31T06:19:59;97344.58;;;17.93;80.50
62703;BME280;66022;50.448;18.122;2023-10-31T06:24:09;97348.56;;;17.92;82.10
62703;BME280;66022;50.448;18.122;2023-10-31T06:28:19;97353.64;;;17.91;80.98
62703;BME280;66022;50.448;18.122;2023-10-31T06:32:29;97361.42;;;17.88;82.29
62703;BME280;66022;50.448;18.122;2023-10-31T06:36:39;97368.56;;;17.87;82.52
62703;BME280;66022;50.448;18.122;2023-10-31T06:40:49;97375.89;;;17.83;82.71
62703;BME280;66022;50.448;18.122;2023-10-31T06:44:59;97382.53;;;17.81;82.70
62703;BME280;66022;50.448;18.122;2023-10-31T06:49:09;97389.14;;;17.78;84.18
62703;BME280;66022;50.448;18.122;2023-10-31T06:53:19;97395.21;;;17.74;83.98
62703;BME280;66022;50.448;18.122;2023-10-31T06:57:29;97401.34;;;17.71;84.01
62703;BME280;66022;50.448;18.122;2023-10-31T07:01:39;97406.20;;;17.63;83.88
62703;BME280;66022;50.448;18.122;2023-10-31T07:05:49;97411.01;;;17.59;84.97
62703;BME280;66022;50.448;18.122;2023-10-31T07:09:59;97415.55;;;17.51;85.19
62703;BME280;66022;50.448;18.122;2023-10-31T07:14:09;97420.81;;;17.45;85.72
62703;BME280;66022;50.448;18.122;2023-10-31T07:18:19;97423.58;;;17.39;86.88
62703;BME280;66022;50.448;18.122;2023-10-31T07:22:29;97425.99;;;17.33;86.96
62703;BME280;66022;50.448;18.122;2023-10-31T07:26:39;97429.63;;;17.28;88.18
62703;BME280;66022;50.448;18.122;2023-10-31T07:30:49;97434.09;;;17.21;88.03
62703;BME280;66022;50.448;18.122;2023-10-31T07:34:59;97439.26;;;17.16;88.41
62703;BME280;66022;50.448;18.122;2023-10-31T07:43:21;97446.14;;;17.05;89.33
62703;BME280;66022;50.448;18.122;2023-10-31T07:47:29;97447.67;;;17.00;89.74
62703;BME280;66022;50.448;18.122;2023-10-31T07:51:40;97449.05;;;16.94;90.30
62703;BME280;66022;50.448;18.122;2023-10-31T07:55:49;97452.39;;;16.91;90.13
62703;BME280;66022;50.448;18.122;2023-10-31T07:59:59;97458.01;;;16.85;91.37
62703;BME280;66022;50.448;18.122;2023-10-31T08:04:09;97465.86;;;16.82;90.95
62703;BME280;66022;50.448;18.122;2023-10-31T08:08:19;97470.50;;;16.80;91.34
62703;BME280;66022;50.448;18.122;2023-10-31T08:12:29;97474.11;;;16.76;91.53
62703;BME280;66022;50.448;18.122;2023-10-31T08:16:39;97479.92;;;16.74;91.53
62703;BME280;66022;50.448;18.122;2023-10-31T08:20:49;97486.55;;;16.72;92.02
62703;BME280;66022;50.448;18.122;2023-10-31T08:24:59;97493.89;;;16.72;92.44
62703;BME280;66022;50.448;18.122;2023-10-31T08:29:09;97500.51;;;16.72;91.91
62703;BME280;66022;50.448;18.122;2023-10-31T08:33:19;97507.62;;;16.73;91.96
62703;BME280;66022;50.448;18.122;2023-10-31T08:37:29;97515.79;;;16.74;92.37
62703;BME280;66022;50.448;18.122;2023-10-31T08:45:49;97524.67;;;16.77;91.57
62703;BME280;66022;50.448;18.122;2023-10-31T08:49:59;97529.26;;;16.80;92.73
62703;BME280;66022;50.448;18.122;2023-10-31T08:54:09;97535.16;;;16.88;91.68
62703;BME280;66022;50.448;18.122;2023-10-31T08:58:19;97541.06;;;16.94;92.10
62703;BME280;66022;50.448;18.122;2023-10-31T09:02:29;97544.78;;;17.00;91.66
62703;BME280;66022;50.448;18.122;2023-10-31T09:06:39;97549.25;;;17.15;90.76
62703;BME280;66022;50.448;18.122;2023-10-31T09:10:49;97556.55;;;17.30;90.88
62703;BME280;66022;50.448;18.122;2023-10-31T09:14:59;97565.87;;;17.43;90.66
62703;BME280;66022;50.448;18.122;2023-10-31T09:19:09;97574.45;;;17.51;91.91
62703;BME280;66022;50.448;18.122;2023-10-31T09:23:19;97583.53;;;17.57;91.91
62703;BME280;66022;50.448;18.122;2023-10-31T09:27:29;97590.32;;;17.61;92.15
62703;BME280;66022;50.448;18.122;2023-10-31T09:31:39;97595.36;;;17.61;92.05
62703;BME280;66022;50.448;18.122;2023-10-31T09:35:49;97602.40;;;17.65;92.21
62703;BME280;66022;50.448;18.122;2023-10-31T09:39:59;97608.07;;;17.68;92.78
62703;BME280;66022;50.448;18.122;2023-10-31T09:44:09;97612.62;;;17.75;91.70
62703;BME280;66022;50.448;18.122;2023-10-31T09:48:19;97616.32;;;17.84;91.70
62703;BME280;66022;50.448;18.122;2023-10-31T09:52:29;97618.33;;;17.93;91.71
62703;BME280;66022;50.448;18.122;2023-10-31T09:56:39;97617.22;;;18.02;91.24
62703;BME280;66022;50.448;18.122;2023-10-31T10:00:49;97619.96;;;18.09;90.36
62703;BME280;66022;50.448;18.122;2023-10-31T10:05:04;97625.40;;;18.15;90.38
62703;BME280;66022;50.448;18.122;2023-10-31T10:09:14;97630.56;;;18.21;91.26
62703;BME280;66022;50.448;18.122;2023-10-31T10:13:22;97637.66;;;18.25;91.21
62703;BME280;66022;50.448;18.122;2023-10-31T10:17:29;97644.53;;;18.29;89.29
62703;BME280;66022;50.448;18.122;2023-10-31T10:25:49;97661.41;;;18.27;87.96
62703;BME280;66022;50.448;18.122;2023-10-31T10:29:59;97668.50;;;18.22;87.02
62703;BME280;66022;50.448;18.122;2023-10-31T10:34:09;97674.56;;;18.22;87.78
62703;BME280;66022;50.448;18.122;2023-10-31T10:38:19;97677.15;;;18.22;87.47
62703;BME280;66022;50.448;18.122;2023-10-31T10:42:32;97675.11;;;18.20;87.58
62703;BME280;66022;50.448;18.122;2023-10-31T10:46:39;97675.06;;;18.21;87.73
62703;BME280;66022;50.448;18.122;2023-10-31T11:03:19;97669.94;;;18.35;87.58
62703;BME280;66022;50.448;18.122;2023-10-31T11:07:29;97669.03;;;18.47;86.28
62703;BME280;66022;50.448;18.122;2023-10-31T11:11:39;97668.76;;;18.52;86.90
62703;BME280;66022;50.448;18.122;2023-10-31T11:15:50;97670.95;;;18.59;87.08
62703;BME280;66022;50.448;18.122;2023-10-31T11:19:59;97673.16;;;18.58;84.51
62703;BME280;66022;50.448;18.122;2023-10-31T11:24:09;97674.20;;;18.60;84.74
62703;BME280;66022;50.448;18.122;2023-10-31T11:28:19;97675.27;;;18.61;85.80
62703;BME280;66022;50.448;18.122;2023-10-31T11:32:31;97677.37;;;18.60;85.12
62703;BME280;66022;50.448;18.122;2023-10-31T11:36:39;97677.47;;;18.61;85.51
62703;BME280;66022;50.448;18.122;2023-10-31T11:44:59;97676.19;;;18.60;86.53
62703;BME280;66022;50.448;18.122;2023-10-31T11:49:09;97676.67;;;18.60;87.26
62703;BME280;66022;50.448;18.122;2023-10-31T11:53:19;97675.71;;;18.60;86.81
62703;BME280;66022;50.448;18.122;2023-10-31T11:57:29;97676.79;;;18.62;87.33
62703;BME280;66022;50.448;18.122;2023-10-31T12:05:52;97680.42;;;18.59;87.87
62703;BME280;66022;50.448;18.122;2023-10-31T12:09:59;97679.00;;;18.54;87.34
62703;BME280;66022;50.448;18.122;2023-10-31T12:14:09;97677.03;;;18.53;88.00
62703;BME280;66022;50.448;18.122;2023-10-31T12:18:19;97672.89;;;18.52;88.61
62703;BME280;66022;50.448;18.122;2023-10-31T12:22:29;97671.12;;;18.48;87.43
62703;BME280;66022;50.448;18.122;2023-10-31T12:26:40;97670.21;;;18.44;87.83
62703;BME280;66022;50.448;18.122;2023-10-31T12:30:50;97669.59;;;18.35;86.75
62703;BME280;66022;50.448;18.122;2023-10-31T12:34:59;97668.78;;;18.28;87.80
62703;BME280;66022;50.448;18.122;2023-10-31T12:39:12;97666.63;;;18.18;87.66
62703;BME280;66022;50.448;18.122;2023-10-31T12:43:19;97664.59;;;18.08;87.07
62703;BME280;66022;50.448;18.122;2023-10-31T12:47:29;97663.67;;;17.99;87.12
62703;BME280;66022;50.448;18.122;2023-10-31T12:51:54;97664.11;;;17.86;87.91
62703;BME280;66022;50.448;18.122;2023-10-31T12:55:49;97667.55;;;17.80;88.04
62703;BME280;66022;50.448;18.122;2023-10-31T12:59:59;97671.70;;;17.70;87.15
62703;BME280;66022;50.448;18.122;2023-10-31T13:04:09;97674.18;;;17.64;87.51
62703;BME280;66022;50.448;18.122;2023-10-31T13:08:19;97675.47;;;17.59;87.69
62703;BME280;66022;50.448;18.122;2023-10-31T13:12:30;97678.39;;;17.52;87.48
62703;BME280;66022;50.448;18.122;2023-10-31T13:16:39;97682.50;;;17.47;87.11
62703;BME280;66022;50.448;18.122;2023-10-31T13:20:49;97686.63;;;17.40;86.58
62703;BME280;66022;50.448;18.122;2023-10-31T13:24:59;97690.75;;;17.35;86.96
62703;BME280;66022;50.448;18.122;2023-10-31T13:29:09;97694.50;;;17.29;86.82
62703;BME280;66022;50.448;18.122;2023-10-31T13:33:19;97697.92;;;17.22;86.35
62703;BME280;66022;50.448;18.122;2023-10-31T13:37:29;97703.66;;;17.16;86.61
62703;BME280;66022;50.448;18.122;2023-10-31T13:41:39;97710.42;;;17.06;86.02
62703;BME280;66022;50.448;18.122;2023-10-31T13:45:49;97715.78;;;17.03;86.63
62703;BME280;66022;50.448;18.122;2023-10-31T13:49:59;97721.56;;;16.96;86.83
62703;BME280;66022;50.448;18.122;2023-10-31T13:54:09;97726.54;;;16.91;86.71
62703;BME280;66022;50.448;18.122;2023-10-31T13:58:19;97732.51;;;16.86;87.15
62703;BME280;66022;50.448;18.122;2023-10-31T14:02:29;97738.36;;;16.79;87.11
62703;BME280;66022;50.448;18.122;2023-10-31T14:06:40;97743.77;;;16.74;87.60
62703;BME280;66022;50.448;18.122;2023-10-31T14:10:54;97749.91;;;16.68;88.11
62703;BME280;66022;50.448;18.122;2023-10-31T14:14:59;97755.36;;;16.62;89.46
62703;BME280;66022;50.448;18.122;2023-10-31T14:19:09;97758.15;;;16.56;90.19
62703;BME280;66022;50.448;18.122;2023-10-31T14:23:19;97761.03;;;16.48;92.97
62703;BME280;66022;50.448;18.122;2023-10-31T14:27:29;97764.18;;;16.42;91.25
62703;BME280;66022;50.448;18.122;2023-10-31T14:31:42;97764.90;;;16.33;91.77
62703;BME280;66022;50.448;18.122;2023-10-31T14:35:49;97764.72;;;16.28;89.65
62703;BME280;66022;50.448;18.122;2023-10-31T14:39:59;97764.81;;;16.19;90.98
62703;BME280;66022;50.448;18.122;2023-10-31T14:44:09;97764.59;;;16.15;89.81
62703;BME280;66022;50.448;18.122;2023-10-31T14:48:19;97762.95;;;16.11;90.36
62703;BME280;66022;50.448;18.122;2023-10-31T14:52:29;97761.25;;;16.06;91.05
62703;BME280;66022;50.448;18.122;2023-10-31T14:56:39;97758.45;;;16.03;89.04
62703;BME280;66022;50.448;18.122;2023-10-31T15:00:49;97757.00;;;16.00;90.81
62703;BME280;66022;50.448;18.122;2023-10-31T15:04:59;97760.24;;;15.97;89.93
62703;BME280;66022;50.448;18.122;2023-10-31T15:09:09;97762.68;;;15.94;89.84
62703;BME280;66022;50.448;18.122;2023-10-31T15:13:19;97764.18;;;15.92;89.40
62703;BME280;66022;50.448;18.122;2023-10-31T15:17:29;97764.04;;;15.90;90.44
62703;BME280;66022;50.448;18.122;2023-10-31T15:21:39;97763.89;;;15.82;89.58
62703;BME280;66022;50.448;18.122;2023-10-31T15:25:49;97767.24;;;15.79;89.87
62703;BME280;66022;50.448;18.122;2023-10-31T15:29:59;97772.20;;;15.71;89.85
62703;BME280;66022;50.448;18.122;2023-10-31T15:34:13;97776.48;;;15.67;88.76
62703;BME280;66022;50.448;18.122;2023-10-31T15:38:22;97776.82;;;15.61;89.33
62703;BME280;66022;50.448;18.122;2023-10-31T15:42:30;97777.44;;;15.53;89.71
62703;BME280;66022;50.448;18.122;2023-10-31T15:46:39;97777.23;;;15.48;89.10
62703;BME280;66022;50.448;18.122;2023-10-31T15:50:49;97774.87;;;15.40;90.38
62703;BME280;66022;50.448;18.122;2023-10-31T15:54:59;97773.67;;;15.35;89.47
62703;BME280;66022;50.448;18.122;2023-10-31T15:59:10;97775.05;;;15.29;90.00
62703;BME280;66022;50.448;18.122;2023-10-31T16:03:19;97779.52;;;15.23;89.67
62703;BME280;66022;50.448;18.122;2023-10-31T16:07:29;97787.08;;;15.19;89.23
62703;BME280;66022;50.448;18.122;2023-10-31T16:11:39;97793.55;;;15.10;90.32
62703;BME280;66022;50.448;18.122;2023-10-31T16:15:49;97801.17;;;15.07;89.96
62703;BME280;66022;50.448;18.122;2023-10-31T16:20:00;97807.98;;;15.00;90.97
62703;BME280;66022;50.448;18.122;2023-10-31T16:24:09;97816.09;;;14.96;91.29
62703;BME280;66022;50.448;18.122;2023-10-31T16:28:19;97823.52;;;14.92;91.23
62703;BME280;66022;50.448;18.122;2023-10-31T16:32:30;97829.40;;;14.86;92.22
62703;BME280;66022;50.448;18.122;2023-10-31T16:36:40;97834.59;;;14.80;94.13
62703;BME280;66022;50.448;18.122;2023-10-31T16:40:49;97839.53;;;14.73;95.22
62703;BME280;66022;50.448;18.122;2023-10-31T16:45:00;97847.28;;;14.67;95.67
62703;BME280;66022;50.448;18.122;2023-10-31T16:49:09;97857.34;;;14.61;95.13
62703;BME280;66022;50.448;18.122;2023-10-31T16:53:19;97869.47;;;14.54;95.07
62703;BME280;66022;50.448;18.122;2023-10-31T16:57:29;97882.86;;;14.48;95.55
62703;BME280;66022;50.448;18.122;2023-10-31T17:01:39;97897.88;;;14.38;96.04
62703;BME280;66022;50.448;18.122;2023-10-31T17:05:49;97910.88;;;14.34;96.51
62703;BME280;66022;50.448;18.122;2023-10-31T17:09:59;97924.19;;;14.25;100.00
62703;BME280;66022;50.448;18.122;2023-10-31T17:14:09;97938.56;;;14.20;96.82
62703;BME280;66022;50.448;18.122;2023-10-31T17:18:19;97952.27;;;14.14;97.18
62703;BME280;66022;50.448;18.122;2023-10-31T17:22:30;97966.24;;;14.06;98.94
62703;BME280;66022;50.448;18.122;2023-10-31T17:26:39;97978.83;;;13.98;98.47
62703;BME280;66022;50.448;18.122;2023-10-31T17:30:53;97991.78;;;13.88;100.00
62703;BME280;66022;50.448;18.122;2023-10-31T17:35:00;98004.35;;;13.80;99.58
62703;BME280;66022;50.448;18.122;2023-10-31T17:39:13;98015.83;;;13.71;99.89
62703;BME280;66022;50.448;18.122;2023-10-31T17:43:20;98025.87;;;13.61;100.00
62703;BME280;66022;50.448;18.122;2023-10-31T17:47:29;98037.27;;;13.53;100.00
62703;BME280;66022;50.448;18.122;2023-10-31T17:51:40;98047.33;;;13.40;100.00
62703;BME280;66022;50.448;18.122;2023-10-31T17:55:50;98055.16;;;13.34;100.00
62703;BME280;66022;50.448;18.122;2023-10-31T17:59:59;98060.10;;;13.25;100.00
62703;BME280;66022;50.448;18.122;2023-10-31T18:04:10;98065.27;;;13.21;100.00
62703;BME280;66022;50.448;18.122;2023-10-31T18:08:19;98070.22;;;13.17;100.00
62703;BME280;66022;50.448;18.122;2023-10-31T18:12:30;98074.16;;;13.11;100.00
62703;BME280;66022;50.448;18.122;2023-10-31T18:16:40;98075.72;;;13.07;100.00
62703;BME280;66022;50.448;18.122;2023-10-31T18:20:50;98079.21;;;13.02;100.00
62703;BME280;66022;50.448;18.122;2023-10-31T18:25:03;98082.01;;;13.00;100.00
62703;BME280;66022;50.448;18.122;2023-10-31T18:29:10;98084.38;;;12.98;100.00
62703;BME280;66022;50.448;18.122;2023-10-31T18:33:20;98085.30;;;12.96;100.00
62703;BME280;66022;50.448;18.122;2023-10-31T18:37:29;98087.25;;;12.95;100.00
62703;BME280;66022;50.448;18.122;2023-10-31T18:41:40;98088.48;;;12.91;100.00
62703;BME280;66022;50.448;18.122;2023-10-31T18:45:50;98091.31;;;12.92;100.00
62703;BME280;66022;50.448;18.122;2023-10-31T18:50:00;98093.52;;;12.88;100.00
62703;BME280;66022;50.448;18.122;2023-10-31T18:54:10;98095.23;;;12.86;100.00
62703;BME280;66022;50.448;18.122;2023-10-31T18:58:20;98097.60;;;12.83;100.00
62703;BME280;66022;50.448;18.122;2023-10-31T19:02:30;98100.64;;;12.80;100.00
62703;BME280;66022;50.448;18.122;2023-10-31T19:06:40;98104.02;;;12.82;100.00
62703;BME280;66022;50.448;18.122;2023-10-31T19:10:50;98106.81;;;12.83;100.00
62703;BME280;66022;50.448;18.122;2023-10-31T19:15:00;98109.80;;;12.86;100.00
62703;BME280;66022;50.448;18.122;2023-10-31T19:19:10;98113.71;;;12.87;100.00
62703;BME280;66022;50.448;18.122;2023-10-31T19:23:20;98117.15;;;12.87;100.00
62703;BME280;66022;50.448;18.122;2023-10-31T19:27:30;98121.56;;;12.87;100.00
62703;BME280;66022;50.448;18.122;2023-10-31T19:31:40;98126.26;;;12.80;100.00
62703;BME280;66022;50.448;18.122;2023-10-31T19:35:50;98131.53;;;12.79;100.00
62703;BME280;66022;50.448;18.122;2023-10-31T19:40:00;98135.51;;;12.76;100.00
62703;BME280;66022;50.448;18.122;2023-10-31T19:44:10;98139.48;;;12.75;100.00
62703;BME280;66022;50.448;18.122;2023-10-31T19:48:20;98143.37;;;12.75;100.00
62703;BME280;66022;50.448;18.122;2023-10-31T19:52:30;98147.88;;;12.74;100.00
62703;BME280;66022;50.448;18.122;2023-10-31T19:56:40;98153.02;;;12.74;100.00
62703;BME280;66022;50.448;18.122;2023-10-31T20:00:50;98158.58;;;12.72;100.00
62703;BME280;66022;50.448;18.122;2023-10-31T20:05:00;98163.90;;;12.72;100.00
62703;BME280;66022;50.448;18.122;2023-10-31T20:09:10;98168.45;;;12.71;100.00
62703;BME280;66022;50.448;18.122;2023-10-31T20:13:20;98171.95;;;12.70;100.00
62703;BME280;66022;50.448;18.122;2023-10-31T20:17:30;98175.33;;;12.70;100.00
62703;BME280;66022;50.448;18.122;2023-10-31T20:21:40;98180.11;;;12.66;100.00
62703;BME280;66022;50.448;18.122;2023-10-31T20:25:50;98184.20;;;12.68;100.00
62703;BME280;66022;50.448;18.122;2023-10-31T20:30:00;98187.81;;;12.64;100.00
62703;BME280;66022;50.448;18.122;2023-10-31T20:34:14;98191.31;;;12.65;100.00
62703;BME280;66022;50.448;18.122;2023-10-31T20:38:20;98194.81;;;12.66;100.00
62703;BME280;66022;50.448;18.122;2023-10-31T20:42:33;98198.46;;;12.64;100.00
62703;BME280;66022;50.448;18.122;2023-10-31T20:46:43;98201.25;;;12.63;100.00
62703;BME280;66022;50.448;18.122;2023-10-31T20:50:50;98204.52;;;12.60;100.00
62703;BME280;66022;50.448;18.122;2023-10-31T20:55:00;98206.34;;;12.59;100.00
62703;BME280;66022;50.448;18.122;2023-10-31T20:59:10;98207.25;;;12.58;100.00
62703;BME280;66022;50.448;18.122;2023-10-31T21:03:20;98209.88;;;12.55;100.00
62703;BME280;66022;50.448;18.122;2023-10-31T21:07:30;98212.27;;;12.53;100.00
62703;BME280;66022;50.448;18.122;2023-10-31T21:11:40;98215.26;;;12.47;100.00
62703;BME280;66022;50.448;18.122;2023-10-31T21:15:50;98218.33;;;12.46;100.00
62703;BME280;66022;50.448;18.122;2023-10-31T21:20:06;98222.90;;;12.40;100.00
62703;BME280;66022;50.448;18.122;2023-10-31T21:24:12;98228.35;;;12.39;100.00
62703;BME280;66022;50.448;18.122;2023-10-31T21:28:20;98233.34;;;12.38;100.00
62703;BME280;66022;50.448;18.122;2023-10-31T21:32:30;98237.84;;;12.35;100.00
62703;BME280;66022;50.448;18.122;2023-10-31T21:36:40;98242.40;;;12.35;100.00
62703;BME280;66022;50.448;18.122;2023-10-31T21:40:50;98246.06;;;12.34;100.00
62703;BME280;66022;50.448;18.122;2023-10-31T21:45:00;98250.18;;;12.34;100.00
62703;BME280;66022;50.448;18.122;2023-10-31T21:49:10;98255.64;;;12.33;100.00
62703;BME280;66022;50.448;18.122;2023-10-31T21:53:19;98261.86;;;12.31;100.00
62703;BME280;66022;50.448;18.122;2023-10-31T21:57:30;98266.30;;;12.30;100.00
62703;BME280;66022;50.448;18.122;2023-10-31T22:01:40;98271.04;;;12.26;100.00
62703;BME280;66022;50.448;18.122;2023-10-31T22:05:50;98275.69;;;12.26;100.00
62703;BME280;66022;50.448;18.122;2023-10-31T22:10:00;98280.50;;;12.21;100.00
62703;BME280;66022;50.448;18.122;2023-10-31T22:14:10;98284.44;;;12.22;100.00
62703;BME280;66022;50.448;18.122;2023-10-31T22:18:20;98287.67;;;12.21;100.00
62703;BME280;66022;50.448;18.122;2023-10-31T22:22:30;98290.02;;;12.19;100.00